createdAt,value
2019-06-07T00:00:37.565Z,101089.00
2019-06-07T00:02:57.099Z,101092.00
2019-06-07T00:05:26.462Z,101090.00
2019-06-07T00:08:07.126Z,101094.00
2019-06-07T00:10:36.073Z,101096.00
2019-06-07T00:12:58.049Z,101086.00
2019-06-07T00:15:28.928Z,101081.00
2019-06-07T00:17:59.041Z,101090.00
2019-06-07T00:20:28.420Z,101088.00
2019-06-07T00:22:57.792Z,101079.00
2019-06-07T00:25:27.178Z,101085.00
2019-06-07T00:27:56.540Z,101085.00
2019-06-07T00:30:41.044Z,101087.00
2019-06-07T00:32:58.374Z,101090.00
2019-06-07T00:35:27.734Z,101089.00
2019-06-07T00:37:57.107Z,101082.00
2019-06-07T00:40:31.712Z,101081.00
2019-06-07T00:42:58.205Z,101085.00
2019-06-07T00:45:27.516Z,101078.00
2019-06-07T00:47:56.929Z,101075.00
2019-06-07T00:50:26.573Z,101077.00
2019-06-07T00:53:14.515Z,101084.00
2019-06-07T00:55:27.866Z,101075.00
2019-06-07T00:57:57.234Z,101076.00
2019-06-07T01:00:26.756Z,101088.00
2019-06-07T01:02:56.344Z,101081.00
2019-06-07T01:05:30.989Z,101090.00
2019-06-07T01:07:56.805Z,101093.00
2019-06-07T01:10:51.766Z,101088.00
2019-06-07T01:12:57.295Z,101087.00
2019-06-07T01:15:29.466Z,101080.00
2019-06-07T01:18:33.498Z,101077.00
2019-06-07T01:20:30.540Z,101075.00
2019-06-07T01:22:59.915Z,101082.00
2019-06-07T01:25:29.304Z,101087.00
2019-06-07T01:27:58.676Z,101087.00
2019-06-07T01:30:29.453Z,101093.00
2019-06-07T01:32:59.584Z,101088.00
2019-06-07T01:35:30.464Z,101080.00
2019-06-07T01:37:59.833Z,101074.00
2019-06-07T01:40:32.501Z,101073.00
2019-06-07T01:43:01.027Z,101084.00
2019-06-07T01:45:31.183Z,101094.00
2019-06-07T01:48:00.768Z,101100.00
2019-06-07T01:50:30.145Z,101091.00
2019-06-07T01:52:59.517Z,101075.00
2019-06-07T01:55:32.550Z,101083.00
2019-06-07T01:58:00.007Z,101070.00
2019-06-07T02:00:32.318Z,101074.00
2019-06-07T02:03:00.993Z,101072.00
2019-06-07T02:05:32.349Z,101095.00
2019-06-07T02:08:01.706Z,101104.00
2019-06-07T02:10:33.649Z,101100.00
2019-06-07T02:13:04.410Z,101108.00
2019-06-07T02:15:36.652Z,101099.00
2019-06-07T02:18:05.162Z,101118.00
2019-06-07T02:20:34.800Z,101108.00
2019-06-07T02:23:04.229Z,101116.00
2019-06-07T02:25:43.025Z,101115.00
2019-06-07T02:28:26.759Z,101107.00
2019-06-07T02:30:44.647Z,101119.00
2019-06-07T02:33:07.385Z,101114.00
2019-06-07T02:35:40.488Z,101113.00
2019-06-07T02:38:07.925Z,101107.00
2019-06-07T02:40:37.729Z,101100.00
2019-06-07T02:43:07.364Z,101110.00
2019-06-07T02:45:43.047Z,101108.00
2019-06-07T02:48:08.382Z,101107.00
2019-06-07T02:50:38.778Z,101102.00
2019-06-07T02:53:08.428Z,101091.00
2019-06-07T02:56:32.829Z,101093.00
2019-06-07T02:58:08.928Z,101109.00
2019-06-07T03:01:06.058Z,101114.00
2019-06-07T03:03:18.108Z,101103.00
2019-06-07T03:05:49.283Z,101099.00
2019-06-07T03:08:19.382Z,101109.00
2019-06-07T03:10:50.845Z,101116.00
2019-06-07T03:13:22.327Z,101128.00
2019-06-07T03:15:53.985Z,101142.00
2019-06-07T03:18:29.093Z,101140.00
2019-06-07T03:21:05.151Z,101145.00
2019-06-07T03:23:33.822Z,101146.00
2019-06-07T03:26:07.343Z,101141.00
2019-06-07T03:28:39.175Z,101142.00
2019-06-07T03:31:07.805Z,101140.00
2019-06-07T03:33:42.833Z,101141.00
2019-06-07T03:36:23.234Z,101133.00
2019-06-07T03:38:40.009Z,101142.00
2019-06-07T03:41:10.166Z,101138.00
2019-06-07T03:43:40.755Z,101138.00
2019-06-07T03:46:10.392Z,101132.00
2019-06-07T03:48:41.524Z,101145.00
2019-06-07T03:51:24.785Z,101147.00
2019-06-07T03:53:43.990Z,101156.00
2019-06-07T03:56:13.873Z,101167.00
2019-06-07T03:58:49.472Z,101172.00
2019-06-07T04:01:14.547Z,101167.00
2019-06-07T04:03:51.369Z,101161.00
2019-06-07T04:06:15.068Z,101164.00
2019-06-07T04:08:44.451Z,101159.00
2019-06-07T04:11:13.848Z,101162.00
2019-06-07T04:13:43.335Z,101169.00
2019-06-07T04:16:12.663Z,101169.00
2019-06-07T04:18:42.632Z,101167.00
2019-06-07T04:21:12.305Z,101167.00
2019-06-07T04:23:45.751Z,101182.00
2019-06-07T04:26:13.461Z,101178.00
2019-06-07T04:29:30.822Z,101177.00
2019-06-07T04:31:14.226Z,101171.00
2019-06-07T04:33:43.910Z,101176.00
2019-06-07T04:36:14.432Z,101180.00
2019-06-07T04:38:45.607Z,101184.00
2019-06-07T04:41:16.645Z,101179.00
2019-06-07T04:43:48.715Z,101168.00
2019-06-07T04:46:21.861Z,101170.00
2019-06-07T04:48:53.556Z,101169.00
2019-06-07T04:51:26.346Z,101151.00
2019-06-07T04:53:55.719Z,101154.00
2019-06-07T04:56:25.663Z,101157.00
2019-06-07T04:58:55.037Z,101152.00
2019-06-07T05:01:27.662Z,101148.00
2019-06-07T05:03:55.530Z,101164.00
2019-06-07T05:06:24.906Z,101160.00
2019-06-07T05:08:54.269Z,101155.00
2019-06-07T05:11:23.656Z,101154.00
2019-06-07T05:13:53.024Z,101151.00
2019-06-07T05:16:22.399Z,101160.00
2019-06-07T05:18:52.134Z,101171.00
2019-06-07T05:21:21.518Z,101171.00
2019-06-07T05:24:10.435Z,101175.00
2019-06-07T05:26:22.001Z,101169.00
2019-06-07T05:28:51.361Z,101167.00
2019-06-07T05:31:20.742Z,101167.00
2019-06-07T05:33:50.139Z,101178.00
2019-06-07T05:36:19.519Z,101172.00
2019-06-07T05:38:48.904Z,101178.00
2019-06-07T05:41:18.759Z,101170.00
2019-06-07T05:44:07.626Z,101183.00
2019-06-07T05:46:19.645Z,101176.00
2019-06-07T05:48:49.017Z,101173.00
2019-06-07T05:51:18.361Z,101172.00
2019-06-07T05:53:47.817Z,101172.00
2019-06-07T05:56:17.586Z,101171.00
2019-06-07T05:58:47.322Z,101168.00
2019-06-07T06:03:48.432Z,101178.00
2019-06-07T06:06:18.621Z,101178.00
2019-06-07T06:08:49.589Z,101177.00
2019-06-07T06:11:19.133Z,101183.00
2019-06-07T06:14:05.326Z,101172.00
2019-06-07T06:16:19.713Z,101182.00
2019-06-07T06:18:49.787Z,101178.00
2019-06-07T06:21:20.458Z,101179.00
2019-06-07T06:23:51.610Z,101182.00
2019-06-07T06:26:21.353Z,101189.00
2019-06-07T06:28:50.794Z,101186.00
2019-06-07T06:31:20.169Z,101190.00
2019-06-07T06:33:50.168Z,101189.00
2019-06-07T06:36:20.169Z,101192.00
2019-06-07T06:38:51.618Z,101192.00
2019-06-07T06:41:21.822Z,101187.00
2019-06-07T06:43:52.660Z,101183.00
2019-06-07T06:46:38.177Z,101184.00
2019-06-07T06:48:55.781Z,101188.00
2019-06-07T06:51:25.319Z,101190.00
2019-06-07T06:53:54.689Z,101179.00
2019-06-07T06:56:25.584Z,101185.00
2019-06-07T07:01:26.067Z,101177.00
2019-06-07T07:04:10.531Z,101172.00
2019-06-07T07:06:27.275Z,101167.00
2019-06-07T07:08:58.460Z,101183.00
2019-06-07T07:11:28.140Z,101172.00
2019-06-07T07:13:58.146Z,101177.00
2019-06-07T07:16:27.520Z,101183.00
2019-06-07T07:18:56.901Z,101180.00
2019-06-07T07:21:26.367Z,101178.00
2019-06-07T07:24:19.540Z,101175.00
2019-06-07T07:26:26.787Z,101172.00
2019-06-07T07:28:57.766Z,101179.00
2019-06-07T07:31:27.337Z,101174.00
2019-06-07T07:34:30.956Z,101177.00
2019-06-07T07:36:38.852Z,101182.00
2019-06-07T07:39:04.727Z,101186.00
2019-06-07T07:41:30.051Z,101181.00
2019-06-07T07:44:06.533Z,101187.00
2019-06-07T07:46:31.160Z,101178.00
2019-06-07T07:49:01.198Z,101186.00
2019-06-07T07:51:31.803Z,101184.00
2019-06-07T07:54:09.988Z,101173.00
2019-06-07T07:56:32.348Z,101176.00
2019-06-07T07:59:02.855Z,101182.00
2019-06-07T08:01:32.465Z,101180.00
2019-06-07T08:04:02.198Z,101182.00
2019-06-07T08:06:31.601Z,101172.00
2019-06-07T08:09:00.979Z,101169.00
2019-06-07T08:11:30.453Z,101170.00
2019-06-07T08:13:59.808Z,101158.00
2019-06-07T08:16:29.199Z,101163.00
2019-06-07T08:19:03.809Z,101164.00
2019-06-07T08:21:29.745Z,101175.00
2019-06-07T08:24:03.662Z,101173.00
2019-06-07T08:26:31.289Z,101180.00
2019-06-07T08:31:34.066Z,101187.00
2019-06-07T08:34:04.125Z,101178.00
2019-06-07T08:36:41.941Z,101180.00
2019-06-07T08:39:08.270Z,101182.00
2019-06-07T08:41:53.457Z,101189.00
2019-06-07T08:44:22.655Z,101173.00
2019-06-07T08:46:40.615Z,101177.00
2019-06-07T08:49:10.022Z,101178.00
2019-06-07T08:51:39.630Z,101179.00
2019-06-07T08:54:22.443Z,101181.00
2019-06-07T08:56:43.564Z,101181.00
2019-06-07T08:59:13.107Z,101165.00
2019-06-07T09:01:42.505Z,101169.00
2019-06-07T09:04:12.137Z,101182.00
2019-06-07T09:07:02.533Z,101181.00
2019-06-07T09:09:12.693Z,101167.00
2019-06-07T09:11:42.196Z,101170.00
2019-06-07T09:14:11.587Z,101170.00
2019-06-07T09:16:41.067Z,101165.00
2019-06-07T09:19:11.390Z,101166.00
2019-06-07T09:21:40.876Z,101160.00
2019-06-07T09:24:11.772Z,101167.00
2019-06-07T09:26:41.440Z,101169.00
2019-06-07T09:29:12.013Z,101164.00
2019-06-07T09:31:52.872Z,101155.00
2019-06-07T09:34:15.080Z,101153.00
2019-06-07T09:36:44.713Z,101161.00
2019-06-07T09:39:14.153Z,101162.00
2019-06-07T09:41:49.720Z,101160.00
2019-06-07T09:44:25.193Z,101160.00
2019-06-07T09:46:46.024Z,101170.00
2019-06-07T09:49:28.600Z,101166.00
2019-06-07T09:51:46.970Z,101170.00
2019-06-07T09:55:02.627Z,101174.00
2019-06-07T09:56:49.054Z,101177.00
2019-06-07T09:59:18.431Z,101172.00
2019-06-07T10:01:47.833Z,101164.00
2019-06-07T10:04:30.857Z,101168.00
2019-06-07T10:06:48.557Z,101169.00
2019-06-07T10:11:49.596Z,101159.00
2019-06-07T10:14:19.061Z,101156.00
2019-06-07T10:16:48.926Z,101159.00
2019-06-07T10:19:19.188Z,101146.00
2019-06-07T10:21:48.559Z,101161.00
2019-06-07T10:24:17.949Z,101151.00
2019-06-07T10:26:47.326Z,101148.00
2019-06-07T10:31:52.828Z,101139.00
2019-06-07T10:34:22.201Z,101141.00
2019-06-07T10:36:51.674Z,101138.00
2019-06-07T10:39:21.814Z,101141.00
2019-06-07T10:41:53.977Z,101140.00
2019-06-07T10:44:22.282Z,101129.00
2019-06-07T10:46:51.666Z,101131.00
2019-06-07T10:49:21.051Z,101131.00
2019-06-07T10:51:50.451Z,101123.00
2019-06-07T10:54:26.719Z,101124.00
2019-06-07T10:56:50.927Z,101128.00
2019-06-07T10:59:21.049Z,101130.00
2019-06-07T11:01:50.785Z,101121.00
2019-06-07T11:04:20.192Z,101122.00
2019-06-07T11:06:49.570Z,101129.00
2019-06-07T11:09:18.952Z,101118.00
2019-06-07T11:11:48.330Z,101133.00
2019-06-07T11:14:17.697Z,101123.00
2019-06-07T11:16:47.130Z,101124.00
2019-06-07T11:19:19.354Z,101120.00
2019-06-07T11:21:47.769Z,101125.00
2019-06-07T11:24:23.682Z,101114.00
2019-06-07T11:26:48.927Z,101107.00
2019-06-07T11:29:19.200Z,101112.00
2019-06-07T11:31:48.592Z,101111.00
2019-06-07T11:34:18.897Z,101121.00
2019-06-07T11:36:51.022Z,101113.00
2019-06-07T11:39:19.786Z,101113.00
2019-06-07T11:41:49.240Z,101105.00
2019-06-07T11:44:18.892Z,101108.00
2019-06-07T11:46:48.275Z,101095.00
2019-06-07T11:49:20.286Z,101099.00
2019-06-07T11:51:48.804Z,101086.00
2019-06-07T11:54:20.302Z,101090.00
2019-06-07T11:56:49.429Z,101082.00
2019-06-07T11:59:18.774Z,101086.00
2019-06-07T12:01:49.596Z,101078.00
2019-06-07T12:04:32.408Z,101086.00
2019-06-07T12:06:50.132Z,101075.00
2019-06-07T12:09:19.706Z,101086.00
2019-06-07T12:11:49.056Z,101074.00
2019-06-07T12:14:19.334Z,101072.00
2019-06-07T12:16:48.837Z,101067.00
2019-06-07T12:19:19.672Z,101065.00
2019-06-07T12:21:49.165Z,101055.00
2019-06-07T12:24:19.833Z,101065.00
2019-06-07T12:26:49.973Z,101049.00
2019-06-07T12:29:19.374Z,101057.00
2019-06-07T12:31:48.752Z,101066.00
2019-06-07T12:34:19.434Z,101063.00
2019-06-07T12:36:48.846Z,101060.00
2019-06-07T12:39:18.215Z,101062.00
2019-06-07T12:41:47.607Z,101050.00
2019-06-07T12:44:18.514Z,101037.00
2019-06-07T12:46:48.422Z,101051.00
2019-06-07T12:49:19.118Z,101042.00
2019-06-07T12:51:48.626Z,101036.00
2019-06-07T12:54:18.080Z,101041.00
2019-06-07T12:56:47.452Z,101025.00
2019-06-07T12:59:17.960Z,101028.00
2019-06-07T13:01:47.298Z,101028.00
2019-06-07T13:04:18.487Z,101022.00
2019-06-07T13:06:47.945Z,101020.00
2019-06-07T13:09:17.943Z,101021.00
2019-06-07T13:11:47.319Z,101012.00
2019-06-07T13:14:17.778Z,101013.00
2019-06-07T13:16:47.293Z,101013.00
2019-06-07T13:19:17.984Z,101014.00
2019-06-07T13:21:47.795Z,101009.00
2019-06-07T13:24:18.796Z,101006.00
2019-06-07T13:26:48.508Z,101002.00
2019-06-07T13:29:18.751Z,100985.00
2019-06-07T13:31:48.398Z,101005.00
2019-06-07T13:34:18.571Z,100992.00
2019-06-07T13:36:48.553Z,100993.00
2019-06-07T13:39:19.521Z,100978.00
2019-06-07T13:41:49.355Z,100981.00
2019-06-07T13:44:18.796Z,100975.00
2019-06-07T13:46:48.134Z,100971.00
2019-06-07T13:49:17.508Z,100971.00
2019-06-07T13:51:47.192Z,100962.00
2019-06-07T13:54:18.477Z,100958.00
2019-06-07T13:57:01.301Z,100952.00
2019-06-07T13:59:20.451Z,100957.00
2019-06-07T14:01:50.201Z,100951.00
2019-06-07T14:04:20.907Z,100952.00
2019-06-07T14:06:51.644Z,100946.00
2019-06-07T14:09:21.483Z,100950.00
2019-06-07T14:11:51.192Z,100945.00
2019-06-07T14:14:21.980Z,100935.00
2019-06-07T14:16:51.469Z,100938.00
2019-06-07T14:19:22.571Z,100929.00
2019-06-07T14:21:52.160Z,100931.00
2019-06-07T14:24:22.945Z,100922.00
2019-06-07T14:27:07.770Z,100930.00
2019-06-07T14:29:41.173Z,100927.00
2019-06-07T14:32:10.154Z,100919.00
2019-06-07T14:34:40.142Z,100923.00
2019-06-07T14:37:09.545Z,100924.00
2019-06-07T14:39:38.905Z,100915.00
2019-06-07T14:42:10.252Z,100917.00
2019-06-07T14:44:39.269Z,100915.00
2019-06-07T14:47:08.630Z,100914.00
2019-06-07T14:49:38.071Z,100915.00
2019-06-07T14:52:07.640Z,100919.00
2019-06-07T14:54:39.146Z,100911.00
2019-06-07T14:57:08.156Z,100913.00
2019-06-07T14:59:38.820Z,100911.00
2019-06-07T15:02:08.393Z,100909.00
2019-06-07T15:04:42.106Z,100913.00
2019-06-07T15:07:14.352Z,100908.00
2019-06-07T15:09:45.024Z,100901.00
2019-06-07T15:12:24.594Z,100908.00
2019-06-07T15:14:45.568Z,100908.00
2019-06-07T15:17:14.962Z,100907.00
2019-06-07T15:19:44.364Z,100898.00
2019-06-07T15:22:13.759Z,100902.00
2019-06-07T15:24:43.522Z,100898.00
2019-06-07T15:27:12.912Z,100900.00
2019-06-07T15:29:42.559Z,100900.00
2019-06-07T15:32:12.192Z,100895.00
2019-06-07T15:34:41.849Z,100887.00
2019-06-07T15:37:11.231Z,100886.00
2019-06-07T15:39:40.732Z,100897.00
2019-06-07T15:42:10.369Z,100893.00
2019-06-07T15:44:39.783Z,100882.00
2019-06-07T15:47:09.169Z,100886.00
2019-06-07T15:49:38.558Z,100890.00
2019-06-07T15:52:08.267Z,100885.00
2019-06-07T15:54:38.499Z,100877.00
2019-06-07T15:57:07.980Z,100884.00
2019-06-07T15:59:37.494Z,100884.00
2019-06-07T16:02:06.854Z,100889.00
2019-06-07T16:04:36.224Z,100875.00
2019-06-07T16:07:05.687Z,100875.00
2019-06-07T16:09:36.317Z,100883.00
2019-06-07T16:12:06.323Z,100887.00
2019-06-07T16:14:36.984Z,100877.00
2019-06-07T16:17:06.354Z,100873.00
2019-06-07T16:19:41.046Z,100880.00
2019-06-07T16:22:07.059Z,100879.00
2019-06-07T16:24:37.651Z,100873.00
2019-06-07T16:27:07.016Z,100878.00
2019-06-07T16:29:36.541Z,100874.00
2019-06-07T16:32:05.922Z,100874.00
2019-06-07T16:34:35.296Z,100880.00
2019-06-07T16:37:05.167Z,100874.00
2019-06-07T16:39:36.221Z,100872.00
2019-06-07T16:42:05.695Z,100870.00
2019-06-07T16:44:36.350Z,100854.00
2019-06-07T16:47:05.975Z,100857.00
2019-06-07T16:49:36.650Z,100861.00
2019-06-07T16:52:06.541Z,100858.00
2019-06-07T16:54:37.282Z,100854.00
2019-06-07T16:57:06.866Z,100861.00
2019-06-07T16:59:36.810Z,100855.00
2019-06-07T17:02:06.257Z,100847.00
2019-06-07T17:04:35.646Z,100864.00
2019-06-07T17:07:05.033Z,100853.00
2019-06-07T17:09:34.472Z,100859.00
2019-06-07T17:12:03.908Z,100854.00
2019-06-07T17:14:35.139Z,100863.00
2019-06-07T17:17:05.171Z,100861.00
2019-06-07T17:19:34.628Z,100863.00
2019-06-07T17:22:04.189Z,100862.00
2019-06-07T17:24:33.543Z,100848.00
2019-06-07T17:27:02.929Z,100852.00
2019-06-07T17:32:18.603Z,100852.00
2019-06-07T17:34:48.241Z,100856.00
2019-06-07T17:37:17.740Z,100857.00
2019-06-07T17:39:47.125Z,100850.00
2019-06-07T17:42:16.503Z,100848.00
2019-06-07T17:44:47.077Z,100850.00
2019-06-07T17:47:16.637Z,100854.00
2019-06-07T17:49:46.022Z,100857.00
2019-06-07T17:52:15.393Z,100852.00
2019-06-07T17:54:45.928Z,100848.00
2019-06-07T17:57:15.328Z,100853.00
2019-06-07T17:59:44.718Z,100856.00
2019-06-07T18:02:15.686Z,100859.00
2019-06-07T18:04:45.285Z,100852.00
2019-06-07T18:07:16.007Z,100852.00
2019-06-07T18:09:45.449Z,100831.00
2019-06-07T18:12:14.858Z,100828.00
2019-06-07T18:14:44.319Z,100834.00
2019-06-07T18:17:15.302Z,100824.00
2019-06-07T18:19:45.323Z,100822.00
2019-06-07T18:22:15.081Z,100829.00
2019-06-07T18:24:44.535Z,100823.00
2019-06-07T18:27:13.906Z,100837.00
2019-06-07T18:29:43.308Z,100824.00
2019-06-07T18:32:13.604Z,100822.00
2019-06-07T18:34:43.157Z,100822.00
2019-06-07T18:37:12.555Z,100829.00
2019-06-07T18:39:42.147Z,100815.00
2019-06-07T18:42:11.578Z,100814.00
2019-06-07T18:44:40.950Z,100814.00
2019-06-07T18:47:10.330Z,100815.00
2019-06-07T18:49:39.691Z,100815.00
2019-06-07T18:52:13.169Z,100813.00
2019-06-07T18:54:42.645Z,100809.00
2019-06-07T18:57:12.540Z,100817.00
2019-06-07T18:59:42.234Z,100818.00
2019-06-07T19:02:12.181Z,100809.00
2019-06-07T19:04:41.590Z,100809.00
2019-06-07T19:07:10.964Z,100802.00
2019-06-07T19:09:40.388Z,100808.00
2019-06-07T19:12:09.781Z,100810.00
2019-06-07T19:14:39.163Z,100808.00
2019-06-07T19:17:08.536Z,100803.00
2019-06-07T19:19:39.255Z,100795.00
2019-06-07T19:22:08.666Z,100786.00
2019-06-07T19:24:38.673Z,100772.00
2019-06-07T19:27:08.114Z,100764.00
2019-06-07T19:29:40.460Z,100770.00
2019-06-07T19:32:09.874Z,100792.00
2019-06-07T19:34:39.300Z,100782.00
2019-06-07T19:37:08.668Z,100780.00
2019-06-07T19:39:38.138Z,100787.00
2019-06-07T19:42:07.537Z,100791.00
2019-06-07T19:44:51.709Z,100796.00
2019-06-07T19:47:08.548Z,100802.00
2019-06-07T19:49:37.937Z,100798.00
2019-06-07T19:52:07.303Z,100800.00
2019-06-07T19:54:36.714Z,100810.00
2019-06-07T19:57:08.159Z,100808.00
2019-06-07T19:59:37.532Z,100812.00
2019-06-07T20:02:07.016Z,100810.00
2019-06-07T20:04:36.341Z,100799.00
2019-06-07T20:07:06.293Z,100799.00
2019-06-07T20:09:35.929Z,100808.00
2019-06-07T20:12:05.826Z,100806.00
2019-06-07T20:14:35.362Z,100814.00
2019-06-07T20:17:05.717Z,100814.00
2019-06-07T20:19:35.098Z,100823.00
2019-06-07T20:22:05.626Z,100819.00
2019-06-07T20:24:37.913Z,100815.00
2019-06-07T20:27:06.120Z,100831.00
2019-06-07T20:29:35.552Z,100833.00
2019-06-07T20:32:05.039Z,100825.00
2019-06-07T20:34:34.419Z,100838.00
2019-06-07T20:37:05.550Z,100844.00
2019-06-07T20:39:34.994Z,100844.00
2019-06-07T20:42:05.886Z,100834.00
2019-06-07T20:44:35.620Z,100832.00
2019-06-07T20:47:06.259Z,100838.00
2019-06-07T20:49:35.753Z,100830.00
2019-06-07T20:52:06.595Z,100831.00
2019-06-07T20:54:36.544Z,100834.00
2019-06-07T20:57:06.774Z,100837.00
2019-06-07T20:59:36.384Z,100831.00
2019-06-07T21:02:07.073Z,100845.00
2019-06-07T21:04:36.516Z,100847.00
2019-06-07T21:07:05.907Z,100838.00
2019-06-07T21:09:35.330Z,100838.00
2019-06-07T21:12:05.892Z,100839.00
2019-06-07T21:14:35.268Z,100843.00
2019-06-07T21:17:04.706Z,100844.00
2019-06-07T21:19:34.218Z,100835.00
2019-06-07T21:22:04.597Z,100828.00
2019-06-07T21:24:34.890Z,100821.00
2019-06-07T21:27:05.339Z,100825.00
2019-06-07T21:29:34.929Z,100831.00
2019-06-07T21:32:05.403Z,100828.00
2019-06-07T21:34:35.117Z,100834.00
2019-06-07T21:37:05.644Z,100835.00
2019-06-07T21:39:35.368Z,100847.00
2019-06-07T21:42:05.974Z,100848.00
2019-06-07T21:44:35.745Z,100848.00
2019-06-07T21:47:06.374Z,100847.00
2019-06-07T21:49:36.080Z,100847.00
2019-06-07T21:52:06.486Z,100854.00
2019-06-07T21:54:35.959Z,100856.00
2019-06-07T21:57:05.375Z,100855.00
2019-06-07T21:59:34.741Z,100854.00
2019-06-07T22:02:05.404Z,100860.00
2019-06-07T22:04:35.007Z,100868.00
2019-06-07T22:07:05.300Z,100872.00
2019-06-07T22:09:34.952Z,100866.00
2019-06-07T22:12:04.553Z,100865.00
2019-06-07T22:14:34.157Z,100866.00
2019-06-07T22:17:04.340Z,100866.00
2019-06-07T22:19:33.742Z,100863.00
2019-06-07T22:22:03.768Z,100870.00
2019-06-07T22:24:34.304Z,100871.00
2019-06-07T22:27:05.390Z,100878.00
2019-06-07T22:29:34.850Z,100869.00
2019-06-07T22:32:04.240Z,100878.00
2019-06-07T22:34:33.825Z,100869.00
2019-06-07T22:37:03.147Z,100879.00
2019-06-07T22:39:32.631Z,100868.00
2019-06-07T22:42:02.004Z,100867.00
2019-06-07T22:44:31.393Z,100851.00
2019-06-07T22:47:01.039Z,100844.00
2019-06-07T22:49:30.493Z,100852.00
2019-06-07T22:52:08.622Z,100845.00
2019-06-07T22:54:31.049Z,100844.00
2019-06-07T22:57:04.851Z,100839.00
2019-06-07T22:59:34.944Z,100837.00
2019-06-07T23:02:04.796Z,100847.00
2019-06-07T23:04:34.163Z,100838.00
2019-06-07T23:07:03.584Z,100838.00
2019-06-07T23:09:32.933Z,100844.00
2019-06-07T23:12:02.360Z,100851.00
2019-06-07T23:14:31.752Z,100846.00
2019-06-07T23:17:01.307Z,100852.00
2019-06-07T23:19:30.697Z,100850.00
2019-06-07T23:22:00.117Z,100856.00
2019-06-07T23:24:30.277Z,100855.00
2019-06-07T23:26:59.623Z,100852.00
2019-06-07T23:29:30.122Z,100849.00
2019-06-07T23:31:59.576Z,100844.00
2019-06-07T23:34:28.944Z,100835.00
2019-06-07T23:36:58.326Z,100831.00
2019-06-07T23:39:27.722Z,100834.00
2019-06-07T23:41:57.103Z,100844.00
2019-06-07T23:44:26.489Z,100850.00
2019-06-07T23:47:10.434Z,100843.00
2019-06-07T23:49:27.317Z,100843.00
2019-06-07T23:51:56.985Z,100829.00
2019-06-07T23:54:26.411Z,100825.00
2019-06-07T23:56:55.911Z,100832.00
2019-06-07T23:59:25.436Z,100838.00
